createdAt,value
2022-08-16T00:00:04.386Z,5.97
2022-08-16T00:02:35.245Z,6.32
2022-08-16T00:05:06.678Z,6.32
2022-08-16T00:07:36.520Z,6.22
2022-08-16T00:10:08.544Z,6.45
2022-08-16T00:12:50.732Z,6.50
2022-08-16T00:15:51.588Z,6.50
2022-08-16T00:18:18.983Z,6.50
2022-08-16T00:20:51.920Z,6.23
2022-08-16T00:23:34.668Z,6.20
2022-08-16T00:26:35.678Z,6.68
2022-08-16T00:28:59.980Z,7.23
2022-08-16T00:31:58.858Z,6.35
2022-08-16T00:34:43.335Z,6.30
2022-08-16T00:37:16.968Z,6.78
2022-08-16T00:39:57.391Z,6.72
2022-08-16T00:42:29.757Z,7.10
2022-08-16T00:45:06.422Z,6.75
2022-08-16T00:47:48.944Z,7.13
2022-08-16T00:50:19.791Z,7.10
2022-08-16T00:52:51.151Z,6.83
2022-08-16T00:55:23.218Z,6.35
2022-08-16T00:57:59.162Z,6.45
2022-08-16T01:00:32.442Z,6.70
2022-08-16T01:03:11.745Z,7.00
2022-08-16T01:05:43.057Z,7.00
2022-08-16T01:08:35.342Z,6.85
2022-08-16T01:11:05.647Z,7.05
2022-08-16T01:13:38.243Z,7.03
2022-08-16T01:16:11.527Z,7.03
2022-08-16T01:18:46.988Z,6.60
2022-08-16T01:21:24.840Z,6.40
2022-08-16T01:24:52.120Z,7.13
2022-08-16T01:27:06.810Z,6.88
2022-08-16T01:29:57.738Z,6.80
2022-08-16T01:32:33.567Z,6.95
2022-08-16T01:35:06.935Z,6.95
2022-08-16T01:37:43.281Z,6.90
2022-08-16T01:40:19.240Z,6.20
2022-08-16T01:42:50.920Z,6.00
2022-08-16T01:45:24.711Z,6.18
2022-08-16T01:48:20.031Z,6.53
2022-08-16T01:51:09.539Z,6.17
2022-08-16T01:53:43.486Z,6.07
2022-08-16T01:56:30.816Z,6.75
2022-08-16T01:59:03.685Z,5.97
2022-08-16T02:01:35.123Z,6.00
2022-08-16T02:04:10.631Z,6.70
2022-08-16T02:06:46.708Z,6.10
2022-08-16T02:09:19.306Z,6.65
2022-08-16T02:11:57.742Z,6.13
2022-08-16T02:14:30.704Z,6.17
2022-08-16T02:17:04.658Z,6.50
2022-08-16T02:19:59.703Z,6.72
2022-08-16T02:22:33.535Z,6.45
2022-08-16T02:25:05.089Z,6.70
2022-08-16T02:27:38.110Z,7.25
2022-08-16T02:30:36.719Z,6.00
2022-08-16T02:33:03.289Z,6.28
2022-08-16T02:35:33.686Z,6.40
2022-08-16T02:38:08.539Z,6.30
2022-08-16T02:40:39.610Z,6.60
2022-08-16T02:43:14.719Z,7.07
2022-08-16T02:45:45.686Z,6.20
2022-08-16T02:48:29.207Z,7.20
2022-08-16T02:51:06.992Z,6.40
2022-08-16T02:53:47.807Z,6.75
2022-08-16T02:56:20.401Z,6.53
2022-08-16T02:58:54.715Z,6.10
2022-08-16T03:01:36.544Z,6.70
2022-08-16T03:04:28.740Z,6.45
2022-08-16T03:07:00.193Z,6.70
2022-08-16T03:09:41.254Z,6.60
2022-08-16T03:12:16.623Z,6.60
2022-08-16T03:14:51.378Z,6.17
2022-08-16T03:17:23.750Z,6.20
2022-08-16T03:20:04.603Z,6.70
2022-08-16T03:22:39.293Z,6.75
2022-08-16T03:25:18.195Z,6.60
2022-08-16T03:28:03.678Z,5.88
2022-08-16T03:30:40.537Z,6.80
2022-08-16T03:33:13.456Z,6.78
2022-08-16T03:35:51.043Z,7.22
2022-08-16T03:38:35.282Z,6.60
2022-08-16T03:41:25.645Z,5.82
2022-08-16T03:44:01.605Z,5.82
2022-08-16T03:46:45.124Z,6.57
2022-08-16T03:49:23.748Z,6.70
2022-08-16T03:52:07.751Z,6.32
2022-08-16T03:54:39.144Z,6.20
2022-08-16T03:57:23.678Z,6.47
2022-08-16T04:00:01.166Z,5.85
2022-08-16T04:02:47.099Z,6.03
2022-08-16T04:05:21.465Z,6.32
2022-08-16T04:07:52.449Z,6.20
2022-08-16T04:10:35.779Z,6.25
2022-08-16T04:13:06.533Z,6.78
2022-08-16T04:15:52.788Z,6.38
2022-08-16T04:18:28.635Z,5.80
2022-08-16T04:21:00.325Z,6.10
2022-08-16T04:23:33.863Z,5.97
2022-08-16T04:26:07.743Z,6.20
2022-08-16T04:28:55.667Z,5.95
2022-08-16T04:31:36.298Z,6.90
2022-08-16T04:34:08.709Z,6.50
2022-08-16T04:36:39.058Z,5.93
2022-08-16T04:39:08.757Z,6.32
2022-08-16T04:41:40.693Z,5.60
2022-08-16T04:44:31.049Z,6.50
2022-08-16T04:47:03.138Z,5.90
2022-08-16T04:49:53.686Z,5.80
2022-08-16T04:52:33.790Z,6.13
2022-08-16T04:55:09.630Z,5.80
2022-08-16T04:57:43.684Z,6.30
2022-08-16T05:00:32.035Z,6.37
2022-08-16T05:03:09.948Z,6.45
2022-08-16T05:05:59.429Z,6.05
2022-08-16T05:08:35.162Z,6.10
2022-08-16T05:11:17.977Z,5.63
2022-08-16T05:13:50.013Z,5.97
2022-08-16T05:16:27.587Z,6.30
2022-08-16T05:19:13.177Z,5.78
2022-08-16T05:22:05.822Z,6.22
2022-08-16T05:24:40.164Z,5.90
2022-08-16T05:27:13.676Z,6.20
2022-08-16T05:29:59.323Z,6.30
2022-08-16T05:32:39.461Z,6.97
2022-08-16T05:35:18.680Z,5.80
2022-08-16T05:38:30.934Z,6.10
2022-08-16T05:41:04.067Z,6.03
2022-08-16T05:43:46.818Z,6.35
2022-08-16T05:46:29.834Z,5.75
2022-08-16T05:49:09.116Z,6.68
2022-08-16T05:51:41.918Z,6.00
2022-08-16T05:54:24.972Z,6.18
2022-08-16T05:56:57.801Z,6.28
2022-08-16T05:59:30.809Z,7.20
2022-08-16T06:02:01.106Z,6.60
2022-08-16T06:04:37.432Z,6.20
2022-08-16T06:07:24.781Z,7.15
2022-08-16T06:10:10.631Z,7.05
2022-08-16T06:12:41.977Z,6.60
2022-08-16T06:15:16.652Z,6.50
2022-08-16T06:17:47.535Z,6.78
2022-08-16T06:20:35.638Z,6.70
2022-08-16T06:23:19.570Z,6.20
2022-08-16T06:26:02.998Z,6.60
2022-08-16T06:28:39.491Z,6.53
2022-08-16T06:31:16.277Z,6.93
2022-08-16T06:33:49.812Z,6.80
2022-08-16T06:36:24.095Z,7.30
2022-08-16T06:39:11.247Z,6.78
2022-08-16T06:42:22.317Z,7.03
2022-08-16T06:45:04.813Z,7.30
2022-08-16T06:47:53.450Z,7.55
2022-08-16T06:50:29.962Z,6.90
2022-08-16T06:53:08.523Z,7.20
2022-08-16T06:55:43.240Z,6.55
2022-08-16T06:58:22.302Z,6.90
2022-08-16T07:01:02.486Z,7.15
2022-08-16T07:03:55.655Z,7.15
2022-08-16T07:06:26.618Z,7.75
2022-08-16T07:08:59.542Z,7.13
2022-08-16T07:11:47.271Z,7.25
2022-08-16T07:14:28.582Z,7.50
2022-08-16T07:17:02.328Z,7.90
2022-08-16T07:20:03.214Z,7.53
2022-08-16T07:22:37.274Z,7.75
2022-08-16T07:25:16.937Z,7.47
2022-08-16T07:27:48.131Z,7.45
2022-08-16T07:30:45.443Z,7.90
2022-08-16T07:33:52.897Z,6.82
2022-08-16T07:36:09.864Z,7.20
2022-08-16T07:38:44.660Z,7.60
2022-08-16T07:41:15.806Z,6.37
2022-08-16T07:43:50.116Z,6.90
2022-08-16T07:46:39.167Z,7.60
2022-08-16T07:49:16.542Z,7.32
2022-08-16T07:51:48.369Z,7.50
2022-08-16T07:54:20.864Z,7.32
2022-08-16T07:56:53.124Z,7.45
2022-08-16T07:59:24.665Z,7.13
2022-08-16T08:01:58.622Z,7.78
2022-08-16T08:04:33.698Z,7.53
2022-08-16T08:07:08.815Z,6.82
2022-08-16T08:09:43.241Z,7.60
2022-08-16T08:12:31.309Z,7.35
2022-08-16T08:15:04.019Z,7.18
2022-08-16T08:17:42.925Z,7.00
2022-08-16T08:20:28.228Z,8.20
2022-08-16T08:23:03.027Z,7.90
2022-08-16T08:25:52.067Z,8.48
2022-08-16T08:28:29.567Z,7.38
2022-08-16T08:31:05.801Z,7.17
2022-08-16T08:33:47.367Z,6.80
2022-08-16T08:36:33.067Z,7.15
2022-08-16T08:39:12.711Z,7.50
2022-08-16T08:41:46.612Z,7.30
2022-08-16T08:44:28.690Z,7.60
2022-08-16T08:47:09.392Z,7.93
2022-08-16T08:49:55.261Z,7.80
2022-08-16T08:52:33.706Z,8.05
2022-08-16T08:55:10.870Z,8.30
2022-08-16T08:57:45.804Z,7.20
2022-08-16T09:00:30.192Z,7.80
2022-08-16T09:03:08.060Z,7.10
2022-08-16T09:05:51.671Z,7.63
2022-08-16T09:08:26.475Z,7.57
2022-08-16T09:11:03.996Z,7.93
2022-08-16T09:13:48.339Z,7.45
2022-08-16T09:17:01.330Z,7.55
2022-08-16T09:19:13.353Z,7.65
2022-08-16T09:21:56.003Z,7.07
2022-08-16T09:24:51.687Z,7.37
2022-08-16T09:27:16.089Z,7.35
2022-08-16T09:29:46.752Z,7.43
2022-08-16T09:32:31.216Z,7.90
2022-08-16T09:35:02.769Z,7.25
2022-08-16T09:37:37.228Z,7.13
2022-08-16T09:40:17.987Z,7.10
2022-08-16T09:42:59.818Z,6.78
2022-08-16T09:45:33.090Z,7.90
2022-08-16T09:48:06.443Z,7.45
2022-08-16T09:50:39.670Z,6.68
2022-08-16T09:53:16.613Z,7.80
2022-08-16T09:55:49.652Z,7.13
2022-08-16T09:58:41.462Z,7.50
2022-08-16T10:01:11.229Z,8.50
2022-08-16T10:04:02.063Z,7.03
2022-08-16T10:06:33.522Z,7.70
2022-08-16T10:09:10.664Z,7.00
2022-08-16T10:11:54.224Z,6.90
2022-08-16T10:14:24.833Z,7.70
2022-08-16T10:17:07.499Z,7.28
2022-08-16T10:19:40.774Z,7.27
2022-08-16T10:22:14.082Z,6.72
2022-08-16T10:24:55.730Z,7.30
2022-08-16T10:27:47.054Z,6.53
2022-08-16T10:30:25.359Z,7.20
2022-08-16T10:32:57.932Z,7.07
2022-08-16T10:35:32.924Z,6.50
2022-08-16T10:38:03.014Z,6.90
2022-08-16T10:40:39.279Z,6.10
2022-08-16T10:43:16.914Z,7.07
2022-08-16T10:46:00.298Z,6.72
2022-08-16T10:48:31.336Z,6.22
2022-08-16T10:51:01.794Z,6.40
2022-08-16T10:53:34.063Z,6.43
2022-08-16T10:56:51.907Z,5.70
2022-08-16T10:59:29.633Z,5.95
2022-08-16T11:07:55.197Z,5.93
2022-08-16T11:11:04.972Z,6.00
2022-08-16T11:19:05.195Z,5.45
2022-08-16T11:21:37.608Z,5.90
2022-08-16T11:24:42.544Z,6.32
2022-08-16T11:27:20.466Z,5.60
2022-08-16T11:29:55.308Z,6.10
2022-08-16T11:32:31.956Z,6.60
2022-08-16T11:35:13.419Z,5.82
2022-08-16T11:40:44.212Z,6.00
2022-08-16T11:43:17.003Z,6.10
2022-08-16T11:45:53.595Z,6.43
2022-08-16T11:48:24.603Z,5.28
2022-08-16T11:50:54.300Z,5.73
2022-08-16T11:53:27.067Z,5.35
2022-08-16T11:55:57.827Z,5.30
2022-08-16T11:58:31.544Z,5.20
2022-08-16T12:01:05.938Z,5.20
2022-08-16T12:03:41.879Z,5.70
2022-08-16T12:06:30.399Z,5.90
2022-08-16T12:09:02.148Z,5.50
2022-08-16T12:11:33.261Z,5.55
2022-08-16T12:14:04.715Z,5.63
2022-08-16T12:16:38.390Z,5.90
2022-08-16T12:19:13.664Z,6.10
2022-08-16T12:21:58.432Z,5.65
2022-08-16T12:24:30.404Z,5.77
2022-08-16T12:27:01.072Z,5.57
2022-08-16T12:29:31.796Z,6.25
2022-08-16T12:32:27.016Z,5.57
2022-08-16T12:34:54.232Z,6.10
2022-08-16T12:37:24.722Z,5.65
2022-08-16T12:39:56.046Z,5.65
2022-08-16T12:42:52.588Z,6.40
2022-08-16T12:45:17.088Z,6.28
2022-08-16T12:48:31.524Z,6.47
2022-08-16T12:50:56.986Z,5.93
2022-08-16T12:53:27.044Z,5.57
2022-08-16T12:56:02.208Z,5.30
2022-08-16T12:58:49.828Z,6.13
2022-08-16T13:01:22.976Z,5.90
2022-08-16T13:04:20.789Z,6.27
2022-08-16T13:06:52.079Z,5.90
2022-08-16T13:09:26.755Z,5.70
2022-08-16T13:12:05.546Z,5.97
2022-08-16T13:14:39.679Z,5.65
2022-08-16T13:17:18.629Z,6.23
2022-08-16T13:20:11.328Z,5.60
2022-08-16T13:22:44.617Z,5.80
2022-08-16T13:25:21.033Z,5.50
2022-08-16T13:28:02.793Z,5.60
2022-08-16T13:30:44.154Z,6.00
2022-08-16T13:33:27.613Z,6.20
2022-08-16T13:36:03.617Z,5.80
2022-08-16T13:38:37.649Z,6.60
2022-08-16T13:41:09.032Z,5.97
2022-08-16T13:43:39.623Z,5.85
2022-08-16T13:46:10.985Z,5.80
2022-08-16T13:48:44.325Z,6.03
2022-08-16T13:51:18.961Z,5.82
2022-08-16T13:53:54.791Z,6.03
2022-08-16T13:56:37.640Z,6.20
2022-08-16T13:59:19.610Z,5.60
2022-08-16T14:01:54.930Z,6.20
2022-08-16T14:04:26.952Z,5.68
2022-08-16T14:07:00.928Z,5.60
2022-08-16T14:09:31.959Z,5.72
2022-08-16T14:12:09.572Z,6.00
2022-08-16T14:14:39.960Z,6.43
2022-08-16T14:17:09.931Z,6.15
2022-08-16T14:19:45.098Z,6.00
2022-08-16T14:22:31.049Z,6.40
2022-08-16T14:25:07.236Z,6.20
2022-08-16T14:27:41.964Z,6.60
2022-08-16T14:30:15.282Z,6.28
2022-08-16T14:32:49.956Z,5.82
2022-08-16T14:35:36.612Z,6.50
2022-08-16T14:38:18.573Z,6.10
2022-08-16T14:40:55.214Z,6.30
2022-08-16T14:43:25.999Z,6.35
2022-08-16T14:45:59.597Z,6.65
2022-08-16T14:48:29.263Z,6.70
2022-08-16T14:50:59.041Z,6.40
2022-08-16T14:53:33.041Z,6.30
2022-08-16T14:56:03.091Z,6.00
2022-08-16T14:58:36.876Z,5.93
2022-08-16T15:01:10.029Z,5.87
2022-08-16T15:03:44.601Z,6.20
2022-08-16T15:06:14.800Z,5.95
2022-08-16T15:08:49.330Z,5.63
2022-08-16T15:11:20.588Z,6.10
2022-08-16T15:13:51.724Z,5.87
2022-08-16T15:16:22.198Z,5.72
2022-08-16T15:18:58.913Z,6.28
2022-08-16T15:21:29.736Z,6.60
2022-08-16T15:24:02.667Z,6.78
2022-08-16T15:26:45.378Z,6.00
2022-08-16T15:29:16.922Z,5.85
2022-08-16T15:31:48.138Z,5.93
2022-08-16T15:34:22.067Z,5.63
2022-08-16T15:36:56.413Z,6.00
2022-08-16T15:39:37.126Z,5.60
2022-08-16T15:42:11.144Z,5.60
2022-08-16T15:44:51.290Z,5.85
2022-08-16T15:47:26.201Z,5.90
2022-08-16T15:49:57.847Z,5.57
2022-08-16T15:52:30.680Z,5.97
2022-08-16T15:55:07.430Z,6.03
2022-08-16T15:57:43.164Z,5.85
2022-08-16T16:00:26.725Z,5.30
2022-08-16T16:03:03.855Z,6.20
2022-08-16T16:05:38.409Z,5.93
2022-08-16T16:08:10.985Z,6.10
2022-08-16T16:10:54.288Z,6.53
2022-08-16T16:13:25.443Z,6.10
2022-08-16T16:15:56.650Z,6.10
2022-08-16T16:18:30.043Z,6.10
2022-08-16T16:21:02.337Z,6.00
2022-08-16T16:23:35.054Z,5.60
2022-08-16T16:26:14.069Z,6.05
2022-08-16T16:29:06.429Z,5.78
2022-08-16T16:31:36.006Z,5.80
2022-08-16T16:34:06.706Z,6.50
2022-08-16T16:36:37.333Z,5.63
2022-08-16T16:39:09.089Z,5.65
2022-08-16T16:41:42.334Z,5.90
2022-08-16T16:44:18.191Z,6.05
2022-08-16T16:47:01.581Z,5.90
2022-08-16T16:49:32.959Z,6.40
2022-08-16T16:52:06.991Z,6.05
2022-08-16T16:54:37.521Z,6.25
2022-08-16T16:57:30.237Z,6.15
2022-08-16T16:59:57.635Z,5.63
2022-08-16T17:02:41.599Z,6.30
2022-08-16T17:05:17.512Z,6.22
2022-08-16T17:07:47.792Z,6.43
2022-08-16T17:10:46.403Z,6.07
2022-08-16T17:13:10.841Z,6.63
2022-08-16T17:15:40.510Z,6.75
2022-08-16T17:19:14.590Z,6.27
2022-08-16T17:21:00.874Z,6.15
2022-08-16T17:23:59.315Z,6.40
2022-08-16T17:26:20.755Z,5.90
2022-08-16T17:29:00.120Z,6.38
2022-08-16T17:31:38.474Z,6.13
2022-08-16T17:34:31.032Z,6.10
2022-08-16T17:37:05.158Z,6.45
2022-08-16T17:39:35.503Z,6.40
2022-08-16T17:42:25.823Z,6.00
2022-08-16T17:44:58.097Z,5.65
2022-08-16T17:47:28.186Z,5.65
2022-08-16T17:49:58.852Z,6.53
2022-08-16T17:52:29.306Z,6.10
2022-08-16T17:54:59.060Z,5.93
2022-08-16T17:57:29.141Z,6.00
2022-08-16T18:00:01.787Z,6.25
2022-08-16T18:02:44.839Z,6.07
2022-08-16T18:05:16.302Z,6.10
2022-08-16T18:07:47.106Z,6.43
2022-08-16T18:10:32.425Z,5.88
2022-08-16T18:13:03.570Z,6.20
2022-08-16T18:15:36.510Z,6.25
2022-08-16T18:18:06.365Z,5.95
2022-08-16T18:20:48.802Z,6.50
2022-08-16T18:23:21.932Z,6.13
2022-08-16T18:25:55.099Z,5.40
2022-08-16T18:28:25.425Z,6.00
2022-08-16T18:31:01.159Z,6.20
2022-08-16T18:33:43.210Z,6.03
2022-08-16T18:36:20.055Z,6.68
2022-08-16T18:38:51.614Z,6.72
2022-08-16T18:41:23.019Z,7.03
2022-08-16T18:44:23.199Z,6.63
2022-08-16T18:46:50.791Z,6.57
2022-08-16T18:49:21.183Z,7.22
2022-08-16T18:51:51.109Z,6.45
2022-08-16T18:54:21.396Z,7.28
2022-08-16T18:56:55.875Z,7.30
2022-08-16T18:59:31.095Z,7.35
2022-08-16T19:02:05.656Z,6.50
2022-08-16T19:04:56.080Z,7.30
2022-08-16T19:07:30.934Z,6.60
2022-08-16T19:10:02.365Z,7.13
2022-08-16T19:12:37.693Z,7.20
2022-08-16T19:15:15.645Z,6.90
2022-08-16T19:17:48.748Z,7.50
2022-08-16T19:20:21.056Z,7.43
2022-08-16T19:23:10.090Z,7.72
2022-08-16T19:25:48.296Z,7.40
2022-08-16T19:28:51.640Z,8.02
2022-08-16T19:31:18.713Z,6.90
2022-08-16T19:33:54.878Z,7.97
2022-08-16T19:36:32.488Z,7.53
2022-08-16T19:39:09.207Z,7.88
2022-08-16T19:41:40.374Z,7.70
2022-08-16T19:44:10.476Z,7.80
2022-08-16T19:46:43.498Z,7.47
2022-08-16T19:49:16.872Z,6.88
2022-08-16T19:51:46.910Z,7.47
2022-08-16T19:54:16.827Z,7.35
2022-08-16T19:56:46.817Z,7.93
2022-08-16T19:59:19.860Z,7.10
2022-08-16T20:01:52.792Z,8.63
2022-08-16T20:04:26.877Z,7.60
2022-08-16T20:06:57.202Z,8.00
2022-08-16T20:09:27.393Z,7.90
2022-08-16T20:11:57.164Z,7.55
2022-08-16T20:14:26.880Z,8.10
2022-08-16T20:16:58.275Z,7.50
2022-08-16T20:19:39.964Z,7.28
2022-08-16T20:22:30.030Z,8.10
2022-08-16T20:25:09.360Z,8.48
2022-08-16T20:27:39.066Z,8.30
2022-08-16T20:30:10.804Z,8.90
2022-08-16T20:32:40.533Z,7.75
2022-08-16T20:35:14.209Z,7.50
2022-08-16T20:37:44.572Z,6.97
2022-08-16T20:40:28.394Z,7.63
2022-08-16T20:43:08.219Z,8.50
2022-08-16T20:45:38.064Z,8.40
2022-08-16T20:48:08.266Z,8.40
2022-08-16T20:50:40.758Z,8.50
2022-08-16T20:53:10.540Z,8.90
2022-08-16T20:55:41.744Z,8.93
2022-08-16T20:58:11.490Z,8.43
2022-08-16T21:00:41.302Z,8.70
2022-08-16T21:03:12.073Z,9.27
2022-08-16T21:05:46.531Z,9.63
2022-08-16T21:08:44.079Z,8.60
2022-08-16T21:11:08.571Z,9.05
2022-08-16T21:13:42.614Z,8.85
2022-08-16T21:16:13.018Z,8.93
2022-08-16T21:18:42.711Z,8.37
2022-08-16T21:21:15.183Z,8.63
2022-08-16T21:23:44.984Z,9.30
2022-08-16T21:26:14.732Z,9.60
2022-08-16T21:28:45.517Z,9.45
2022-08-16T21:31:16.378Z,9.90
2022-08-16T21:33:54.793Z,9.57
2022-08-16T21:36:34.872Z,9.30
2022-08-16T21:39:07.866Z,9.20
2022-08-16T21:41:38.441Z,9.85
2022-08-16T21:44:08.236Z,9.53
2022-08-16T21:46:37.875Z,9.13
2022-08-16T21:49:07.555Z,9.95
2022-08-16T21:51:39.832Z,9.88
2022-08-16T21:54:09.527Z,8.93
2022-08-16T21:56:39.226Z,9.33
2022-08-16T21:59:11.032Z,10.02
2022-08-16T22:01:42.364Z,9.35
2022-08-16T22:04:37.854Z,9.88
2022-08-16T22:07:06.519Z,9.25
2022-08-16T22:09:36.294Z,9.52
2022-08-16T22:12:06.584Z,9.63
2022-08-16T22:14:36.487Z,10.40
2022-08-16T22:17:06.196Z,10.43
2022-08-16T22:19:37.121Z,10.50
2022-08-16T22:22:09.843Z,9.85
2022-08-16T22:24:39.801Z,10.10
2022-08-16T22:27:09.606Z,10.00
2022-08-16T22:29:42.191Z,9.50
2022-08-16T22:32:12.640Z,9.80
2022-08-16T22:34:42.265Z,9.38
2022-08-16T22:37:14.500Z,10.40
2022-08-16T22:39:44.919Z,10.18
2022-08-16T22:42:15.252Z,9.60
2022-08-16T22:44:46.437Z,10.60
2022-08-16T22:47:16.776Z,10.60
2022-08-16T22:49:47.778Z,10.60
2022-08-16T22:52:50.760Z,10.40
2022-08-16T22:55:10.742Z,10.40
2022-08-16T22:57:40.389Z,9.90
2022-08-16T23:00:12.866Z,10.40
2022-08-16T23:02:58.063Z,9.80
2022-08-16T23:05:29.137Z,10.43
2022-08-16T23:08:02.270Z,10.20
2022-08-16T23:10:32.647Z,10.88
2022-08-16T23:13:05.379Z,10.05
2022-08-16T23:15:41.821Z,10.60
2022-08-16T23:18:12.082Z,11.20
2022-08-16T23:20:42.529Z,11.10
2022-08-16T23:23:20.306Z,9.50
2022-08-16T23:25:55.050Z,10.20
2022-08-16T23:28:27.757Z,10.63
2022-08-16T23:30:57.779Z,10.60
2022-08-16T23:33:28.720Z,11.30
2022-08-16T23:36:00.268Z,10.57
2022-08-16T23:38:38.439Z,11.07
2022-08-16T23:41:11.971Z,10.75
2022-08-16T23:43:43.715Z,10.77
2022-08-16T23:46:16.946Z,11.10
2022-08-16T23:49:55.983Z,10.10
2022-08-16T23:51:37.216Z,11.43
2022-08-16T23:54:11.526Z,11.50
2022-08-16T23:56:41.269Z,10.75
2022-08-16T23:59:11.239Z,11.45
